sensor_id;sensor_type;location;lat;lon;timestamp;pressure;altitude;pressure_sealevel;temperature;humidity
33161;BME280;19522;45.656;11.302;2023-02-03T00:01:16;99097.97;;;3.30;60.42
33161;BME280;19522;45.656;11.302;2023-02-03T00:03:42;99114.13;;;3.51;60.62
33161;BME280;19522;45.656;11.302;2023-02-03T00:06:07;99097.38;;;3.59;59.41
33161;BME280;19522;45.656;11.302;2023-02-03T00:08:34;99103.69;;;3.69;59.51
33161;BME280;19522;45.656;11.302;2023-02-03T00:11:01;99114.88;;;3.74;58.92
33161;BME280;19522;45.656;11.302;2023-02-03T00:13:26;99079.63;;;3.35;60.10
33161;BME280;19522;45.656;11.302;2023-02-03T00:15:54;99120.28;;;3.19;65.05
33161;BME280;19522;45.656;11.302;2023-02-03T00:18:20;99124.69;;;3.20;65.53
33161;BME280;19522;45.656;11.302;2023-02-03T00:20:45;99125.78;;;3.18;66.41
33161;BME280;19522;45.656;11.302;2023-02-03T00:23:11;99103.13;;;3.10;66.86
33161;BME280;19522;45.656;11.302;2023-02-03T00:25:40;99102.63;;;2.94;67.96
33161;BME280;19522;45.656;11.302;2023-02-03T00:28:06;99115.06;;;3.06;68.23
33161;BME280;19522;45.656;11.302;2023-02-03T00:30:33;99103.22;;;3.09;68.57
33161;BME280;19522;45.656;11.302;2023-02-03T00:33:00;99109.09;;;3.03;68.93
33161;BME280;19522;45.656;11.302;2023-02-03T00:35:26;99111.66;;;3.04;68.58
33161;BME280;19522;45.656;11.302;2023-02-03T00:37:56;99100.31;;;2.89;68.75
33161;BME280;19522;45.656;11.302;2023-02-03T00:40:23;99113.97;;;3.09;69.05
33161;BME280;19522;45.656;11.302;2023-02-03T00:42:49;99120.19;;;3.09;68.92
33161;BME280;19522;45.656;11.302;2023-02-03T00:45:16;99119.69;;;3.27;68.74
33161;BME280;19522;45.656;11.302;2023-02-03T00:47:41;99130.19;;;3.07;69.71
33161;BME280;19522;45.656;11.302;2023-02-03T00:50:08;99123.88;;;2.52;72.70
33161;BME280;19522;45.656;11.302;2023-02-03T00:52:34;99134.25;;;2.68;73.28
33161;BME280;19522;45.656;11.302;2023-02-03T00:54:59;99134.63;;;2.63;74.29
33161;BME280;19522;45.656;11.302;2023-02-03T00:57:27;99143.25;;;2.67;75.17
33161;BME280;19522;45.656;11.302;2023-02-03T00:59:53;99133.25;;;2.46;76.58
33161;BME280;19522;45.656;11.302;2023-02-03T01:02:19;99133.84;;;2.49;77.33
33161;BME280;19522;45.656;11.302;2023-02-03T01:04:45;99141.31;;;2.57;77.46
33161;BME280;19522;45.656;11.302;2023-02-03T01:07:10;99133.75;;;2.62;77.32
33161;BME280;19522;45.656;11.302;2023-02-03T01:09:36;99139.44;;;2.46;79.49
33161;BME280;19522;45.656;11.302;2023-02-03T01:12:03;99118.72;;;2.26;80.60
33161;BME280;19522;45.656;11.302;2023-02-03T01:14:29;99143.81;;;2.36;81.03
33161;BME280;19522;45.656;11.302;2023-02-03T01:16:55;99149.31;;;2.34;82.10
33161;BME280;19522;45.656;11.302;2023-02-03T01:19:21;99147.75;;;2.43;83.03
33161;BME280;19522;45.656;11.302;2023-02-03T01:21:47;99125.66;;;2.28;84.83
33161;BME280;19522;45.656;11.302;2023-02-03T01:24:12;99145.78;;;2.34;86.34
33161;BME280;19522;45.656;11.302;2023-02-03T01:26:39;99140.69;;;2.42;87.65
33161;BME280;19522;45.656;11.302;2023-02-03T01:29:06;99134.72;;;2.50;88.46
33161;BME280;19522;45.656;11.302;2023-02-03T01:31:44;99106.38;;;2.23;86.71
33161;BME280;19522;45.656;11.302;2023-02-03T01:34:12;99129.22;;;2.40;85.60
33161;BME280;19522;45.656;11.302;2023-02-03T01:36:37;99132.03;;;2.50;85.62
33161;BME280;19522;45.656;11.302;2023-02-03T01:39:04;99129.00;;;2.55;85.67
33161;BME280;19522;45.656;11.302;2023-02-03T01:41:33;99126.31;;;2.66;85.63
33161;BME280;19522;45.656;11.302;2023-02-03T01:44:00;99122.66;;;2.78;84.96
33161;BME280;19522;45.656;11.302;2023-02-03T01:46:38;99116.94;;;2.83;84.32
33161;BME280;19522;45.656;11.302;2023-02-03T01:49:09;99118.03;;;2.92;83.62
33161;BME280;19522;45.656;11.302;2023-02-03T01:51:37;99116.31;;;3.02;83.34
33161;BME280;19522;45.656;11.302;2023-02-03T01:54:06;99107.91;;;2.95;83.75
33161;BME280;19522;45.656;11.302;2023-02-03T01:56:35;99107.53;;;3.11;83.40
33161;BME280;19522;45.656;11.302;2023-02-03T01:59:03;99090.94;;;2.95;83.79
33161;BME280;19522;45.656;11.302;2023-02-03T02:01:30;99115.09;;;2.72;85.06
33161;BME280;19522;45.656;11.302;2023-02-03T02:03:58;99115.75;;;2.06;85.51
33161;BME280;19522;45.656;11.302;2023-02-03T02:06:25;99117.97;;;2.24;85.70
33161;BME280;19522;45.656;11.302;2023-02-03T02:08:51;99118.78;;;2.13;85.23
33161;BME280;19522;45.656;11.302;2023-02-03T02:11:18;99129.94;;;2.31;86.99
33161;BME280;19522;45.656;11.302;2023-02-03T02:13:48;99119.47;;;2.39;86.31
33161;BME280;19522;45.656;11.302;2023-02-03T02:16:21;99124.78;;;2.28;86.30
33161;BME280;19522;45.656;11.302;2023-02-03T02:21:58;99141.72;;;2.17;87.72
33161;BME280;19522;45.656;11.302;2023-02-03T02:30:38;99140.97;;;2.15;86.80
33161;BME280;19522;45.656;11.302;2023-02-03T02:41:37;99161.31;;;2.64;82.55
33161;BME280;19522;45.656;11.302;2023-02-03T02:44:29;99172.38;;;2.48;83.48
33161;BME280;19522;45.656;11.302;2023-02-03T02:46:58;99166.78;;;2.52;83.32
33161;BME280;19522;45.656;11.302;2023-02-03T02:49:31;99149.97;;;2.14;83.46
33161;BME280;19522;45.656;11.302;2023-02-03T02:52:01;99151.13;;;1.87;85.07
33161;BME280;19522;45.656;11.302;2023-02-03T02:54:30;99188.31;;;2.03;85.54
33161;BME280;19522;45.656;11.302;2023-02-03T02:56:59;99186.38;;;2.05;85.36
33161;BME280;19522;45.656;11.302;2023-02-03T02:59:26;99183.66;;;2.29;83.55
33161;BME280;19522;45.656;11.302;2023-02-03T03:01:52;99190.13;;;2.38;82.58
33161;BME280;19522;45.656;11.302;2023-02-03T03:04:21;99204.13;;;1.95;83.81
33161;BME280;19522;45.656;11.302;2023-02-03T03:07:13;99213.38;;;1.53;86.49
33161;BME280;19522;45.656;11.302;2023-02-03T03:09:47;99214.56;;;1.86;85.26
33161;BME280;19522;45.656;11.302;2023-02-03T03:14:48;99216.84;;;2.04;84.08
33161;BME280;19522;45.656;11.302;2023-02-03T03:17:23;99228.25;;;1.95;84.09
33161;BME280;19522;45.656;11.302;2023-02-03T03:19:55;99239.22;;;1.79;85.35
33161;BME280;19522;45.656;11.302;2023-02-03T03:22:28;99236.47;;;1.67;85.73
33161;BME280;19522;45.656;11.302;2023-02-03T03:25:23;99235.69;;;1.78;84.55
33161;BME280;19522;45.656;11.302;2023-02-03T03:27:55;99238.66;;;1.62;84.54
33161;BME280;19522;45.656;11.302;2023-02-03T03:30:26;99223.09;;;1.30;84.65
33161;BME280;19522;45.656;11.302;2023-02-03T03:32:54;99249.19;;;1.77;83.44
33161;BME280;19522;45.656;11.302;2023-02-03T03:35:21;99255.09;;;1.82;82.72
33161;BME280;19522;45.656;11.302;2023-02-03T03:38:31;99258.78;;;1.68;83.29
33161;BME280;19522;45.656;11.302;2023-02-03T03:41:07;99252.66;;;1.66;83.50
33161;BME280;19522;45.656;11.302;2023-02-03T03:43:38;99240.00;;;1.31;84.32
33161;BME280;19522;45.656;11.302;2023-02-03T03:46:15;99250.69;;;1.44;84.62
33161;BME280;19522;45.656;11.302;2023-02-03T03:48:52;99269.53;;;1.29;84.86
33161;BME280;19522;45.656;11.302;2023-02-03T03:51:24;99284.56;;;1.06;86.51
33161;BME280;19522;45.656;11.302;2023-02-03T03:53:52;99286.78;;;0.86;87.23
33161;BME280;19522;45.656;11.302;2023-02-03T03:56:27;99297.16;;;1.04;87.67
33161;BME280;19522;45.656;11.302;2023-02-03T03:58:58;99281.66;;;1.35;85.81
33161;BME280;19522;45.656;11.302;2023-02-03T04:01:26;99297.81;;;1.46;84.89
33161;BME280;19522;45.656;11.302;2023-02-03T04:03:57;99289.25;;;1.28;85.31
33161;BME280;19522;45.656;11.302;2023-02-03T04:06:24;99292.91;;;0.88;86.33
33161;BME280;19522;45.656;11.302;2023-02-03T04:08:50;99278.66;;;0.75;87.62
33161;BME280;19522;45.656;11.302;2023-02-03T04:11:15;99288.63;;;0.99;86.26
33161;BME280;19522;45.656;11.302;2023-02-03T04:14:01;99290.00;;;0.78;87.01
33161;BME280;19522;45.656;11.302;2023-02-03T04:16:27;99297.28;;;0.89;87.29
33161;BME280;19522;45.656;11.302;2023-02-03T04:18:52;99302.75;;;1.27;85.81
33161;BME280;19522;45.656;11.302;2023-02-03T04:21:22;99283.28;;;0.99;86.49
33161;BME280;19522;45.656;11.302;2023-02-03T04:23:47;99283.72;;;1.05;86.61
33161;BME280;19522;45.656;11.302;2023-02-03T04:26:14;99280.03;;;1.06;86.84
33161;BME280;19522;45.656;11.302;2023-02-03T04:28:40;99276.09;;;1.12;86.54
33161;BME280;19522;45.656;11.302;2023-02-03T04:31:05;99277.47;;;1.31;85.78
33161;BME280;19522;45.656;11.302;2023-02-03T04:33:31;99277.19;;;1.60;84.23
33161;BME280;19522;45.656;11.302;2023-02-03T04:35:56;99287.09;;;1.46;83.92
33161;BME280;19522;45.656;11.302;2023-02-03T04:38:22;99279.81;;;1.35;84.94
33161;BME280;19522;45.656;11.302;2023-02-03T04:40:47;99268.06;;;1.38;84.30
33161;BME280;19522;45.656;11.302;2023-02-03T04:43:14;99290.00;;;1.30;86.00
33161;BME280;19522;45.656;11.302;2023-02-03T04:45:41;99269.88;;;1.24;85.98
33161;BME280;19522;45.656;11.302;2023-02-03T04:48:06;99280.97;;;1.44;85.97
33161;BME280;19522;45.656;11.302;2023-02-03T04:50:35;99281.81;;;1.58;84.44
33161;BME280;19522;45.656;11.302;2023-02-03T04:53:00;99285.25;;;1.47;85.30
33161;BME280;19522;45.656;11.302;2023-02-03T04:55:27;99280.22;;;1.42;85.59
33161;BME280;19522;45.656;11.302;2023-02-03T04:57:56;99266.97;;;1.40;86.05
33161;BME280;19522;45.656;11.302;2023-02-03T05:00:23;99262.06;;;1.21;86.51
33161;BME280;19522;45.656;11.302;2023-02-03T05:02:48;99254.38;;;1.30;86.15
33161;BME280;19522;45.656;11.302;2023-02-03T05:05:14;99270.75;;;1.25;87.45
33161;BME280;19522;45.656;11.302;2023-02-03T05:07:39;99270.94;;;1.35;89.72
33161;BME280;19522;45.656;11.302;2023-02-03T05:10:06;99279.94;;;1.21;89.74
33161;BME280;19522;45.656;11.302;2023-02-03T05:12:31;99276.94;;;1.26;89.05
33161;BME280;19522;45.656;11.302;2023-02-03T05:14:57;99257.59;;;0.96;88.60
33161;BME280;19522;45.656;11.302;2023-02-03T05:17:23;99281.88;;;1.06;89.22
33161;BME280;19522;45.656;11.302;2023-02-03T05:19:48;99271.06;;;1.07;89.69
33161;BME280;19522;45.656;11.302;2023-02-03T05:22:14;99255.56;;;1.00;89.52
33161;BME280;19522;45.656;11.302;2023-02-03T05:24:39;99268.06;;;1.12;88.97
33161;BME280;19522;45.656;11.302;2023-02-03T05:27:05;99265.72;;;1.07;89.20
33161;BME280;19522;45.656;11.302;2023-02-03T05:29:33;99276.59;;;1.43;86.51
33161;BME280;19522;45.656;11.302;2023-02-03T05:31:59;99266.44;;;1.22;86.34
33161;BME280;19522;45.656;11.302;2023-02-03T05:34:24;99271.16;;;1.19;86.92
33161;BME280;19522;45.656;11.302;2023-02-03T05:36:50;99253.03;;;1.35;86.47
33161;BME280;19522;45.656;11.302;2023-02-03T05:39:16;99264.00;;;1.19;87.24
33161;BME280;19522;45.656;11.302;2023-02-03T05:41:41;99274.06;;;1.29;87.84
33161;BME280;19522;45.656;11.302;2023-02-03T05:44:20;99268.06;;;1.38;87.28
33161;BME280;19522;45.656;11.302;2023-02-03T05:46:51;99249.84;;;1.30;87.63
33161;BME280;19522;45.656;11.302;2023-02-03T05:49:17;99251.94;;;1.01;88.75
33161;BME280;19522;45.656;11.302;2023-02-03T05:51:44;99253.09;;;1.09;88.96
33161;BME280;19522;45.656;11.302;2023-02-03T05:54:10;99248.13;;;1.29;87.88
33161;BME280;19522;45.656;11.302;2023-02-03T05:56:36;99245.47;;;1.29;88.08
33161;BME280;19522;45.656;11.302;2023-02-03T05:59:02;99253.06;;;1.22;88.44
33161;BME280;19522;45.656;11.302;2023-02-03T06:01:27;99250.53;;;0.95;90.01
33161;BME280;19522;45.656;11.302;2023-02-03T06:03:53;99249.97;;;1.03;90.68
33161;BME280;19522;45.656;11.302;2023-02-03T06:06:18;99254.06;;;0.96;90.56
33161;BME280;19522;45.656;11.302;2023-02-03T06:08:44;99256.19;;;1.16;89.39
33161;BME280;19522;45.656;11.302;2023-02-03T06:11:10;99249.63;;;1.20;88.46
33161;BME280;19522;45.656;11.302;2023-02-03T06:13:36;99250.28;;;1.11;89.49
33161;BME280;19522;45.656;11.302;2023-02-03T06:16:01;99200.03;;;0.77;88.75
33161;BME280;19522;45.656;11.302;2023-02-03T06:18:27;99258.66;;;0.93;89.37
33161;BME280;19522;45.656;11.302;2023-02-03T06:20:52;99241.00;;;0.78;90.13
33161;BME280;19522;45.656;11.302;2023-02-03T06:23:18;99257.56;;;0.83;90.63
33161;BME280;19522;45.656;11.302;2023-02-03T06:25:52;99253.00;;;0.85;90.69
33161;BME280;19522;45.656;11.302;2023-02-03T06:28:18;99200.03;;;0.52;90.25
33161;BME280;19522;45.656;11.302;2023-02-03T06:30:43;99265.06;;;1.04;88.88
33161;BME280;19522;45.656;11.302;2023-02-03T06:33:09;99175.25;;;0.63;88.61
33161;BME280;19522;45.656;11.302;2023-02-03T06:35:35;99262.53;;;0.89;88.41
33161;BME280;19522;45.656;11.302;2023-02-03T06:38:01;99286.91;;;0.98;88.47
33161;BME280;19522;45.656;11.302;2023-02-03T06:40:26;99288.81;;;1.21;87.30
33161;BME280;19522;45.656;11.302;2023-02-03T06:42:52;99299.75;;;1.31;87.08
33161;BME280;19522;45.656;11.302;2023-02-03T06:45:18;99308.50;;;1.20;87.24
33161;BME280;19522;45.656;11.302;2023-02-03T06:47:44;99315.59;;;1.08;88.15
33161;BME280;19522;45.656;11.302;2023-02-03T06:50:12;99311.28;;;0.80;88.57
33161;BME280;19522;45.656;11.302;2023-02-03T06:52:38;99329.69;;;0.85;89.79
33161;BME280;19522;45.656;11.302;2023-02-03T06:55:04;99317.91;;;0.74;89.75
33161;BME280;19522;45.656;11.302;2023-02-03T06:57:30;99321.16;;;1.05;89.24
33161;BME280;19522;45.656;11.302;2023-02-03T06:59:56;99307.63;;;0.68;89.72
33161;BME280;19522;45.656;11.302;2023-02-03T07:02:22;99321.38;;;0.89;90.71
33161;BME280;19522;45.656;11.302;2023-02-03T07:04:47;99336.47;;;1.16;89.79
33161;BME280;19522;45.656;11.302;2023-02-03T07:07:13;99318.38;;;0.94;89.73
33161;BME280;19522;45.656;11.302;2023-02-03T07:09:39;99338.09;;;0.66;91.79
33161;BME280;19522;45.656;11.302;2023-02-03T07:12:06;99315.31;;;0.60;92.57
33161;BME280;19522;45.656;11.302;2023-02-03T07:14:32;99312.31;;;0.52;91.82
33161;BME280;19522;45.656;11.302;2023-02-03T07:17:01;99306.50;;;0.45;93.26
33161;BME280;19522;45.656;11.302;2023-02-03T07:19:27;99322.31;;;0.88;91.65
33161;BME280;19522;45.656;11.302;2023-02-03T07:21:52;99325.75;;;1.03;90.31
33161;BME280;19522;45.656;11.302;2023-02-03T07:24:18;99297.78;;;0.69;90.73
33161;BME280;19522;45.656;11.302;2023-02-03T07:26:43;99326.72;;;0.89;90.70
33161;BME280;19522;45.656;11.302;2023-02-03T07:29:09;99333.97;;;1.00;90.77
33161;BME280;19522;45.656;11.302;2023-02-03T07:31:34;99318.06;;;0.99;90.65
33161;BME280;19522;45.656;11.302;2023-02-03T07:34:00;99335.91;;;0.98;90.85
33161;BME280;19522;45.656;11.302;2023-02-03T07:36:27;99362.03;;;1.20;91.36
33161;BME280;19522;45.656;11.302;2023-02-03T07:38:53;99296.44;;;0.36;91.88
33161;BME280;19522;45.656;11.302;2023-02-03T07:41:19;99346.84;;;0.55;93.28
33161;BME280;19522;45.656;11.302;2023-02-03T07:43:44;99357.81;;;0.77;93.34
33161;BME280;19522;45.656;11.302;2023-02-03T07:46:10;99352.72;;;1.13;91.19
33161;BME280;19522;45.656;11.302;2023-02-03T07:48:35;99318.06;;;0.99;90.53
33161;BME280;19522;45.656;11.302;2023-02-03T07:51:01;99347.69;;;0.96;91.20
33161;BME280;19522;45.656;11.302;2023-02-03T07:53:27;99325.81;;;0.76;92.34
33161;BME280;19522;45.656;11.302;2023-02-03T07:55:52;99337.66;;;1.25;91.01
33161;BME280;19522;45.656;11.302;2023-02-03T07:58:18;99327.16;;;1.35;89.98
33161;BME280;19522;45.656;11.302;2023-02-03T08:00:43;99326.19;;;1.23;91.17
33161;BME280;19522;45.656;11.302;2023-02-03T08:03:09;99321.78;;;1.35;91.47
33161;BME280;19522;45.656;11.302;2023-02-03T08:05:35;99317.94;;;1.52;90.41
33161;BME280;19522;45.656;11.302;2023-02-03T08:08:00;99327.09;;;1.61;90.49
33161;BME280;19522;45.656;11.302;2023-02-03T08:10:26;99321.09;;;1.70;90.41
33161;BME280;19522;45.656;11.302;2023-02-03T08:12:53;99304.06;;;1.71;89.95
33161;BME280;19522;45.656;11.302;2023-02-03T08:15:19;99320.78;;;1.99;89.71
33161;BME280;19522;45.656;11.302;2023-02-03T08:17:44;99319.06;;;2.11;89.50
33161;BME280;19522;45.656;11.302;2023-02-03T08:20:11;99295.28;;;2.30;87.15
33161;BME280;19522;45.656;11.302;2023-02-03T08:22:36;99310.81;;;2.49;86.11
33161;BME280;19522;45.656;11.302;2023-02-03T08:25:02;99306.97;;;2.65;85.99
33161;BME280;19522;45.656;11.302;2023-02-03T08:27:30;99296.19;;;2.78;84.97
33161;BME280;19522;45.656;11.302;2023-02-03T08:29:56;99276.81;;;2.97;83.01
33161;BME280;19522;45.656;11.302;2023-02-03T08:32:22;99268.50;;;2.89;82.60
33161;BME280;19522;45.656;11.302;2023-02-03T08:34:50;99287.25;;;3.36;82.57
33161;BME280;19522;45.656;11.302;2023-02-03T08:37:18;99255.25;;;3.10;82.88
33161;BME280;19522;45.656;11.302;2023-02-03T08:39:44;99287.59;;;3.31;81.57
33161;BME280;19522;45.656;11.302;2023-02-03T08:42:10;99297.97;;;3.47;81.01
33161;BME280;19522;45.656;11.302;2023-02-03T08:44:35;99305.78;;;3.62;80.33
33161;BME280;19522;45.656;11.302;2023-02-03T08:47:04;99309.06;;;3.77;79.73
33161;BME280;19522;45.656;11.302;2023-02-03T08:49:30;99283.63;;;3.92;77.60
33161;BME280;19522;45.656;11.302;2023-02-03T08:51:58;99251.66;;;3.89;76.32
33161;BME280;19522;45.656;11.302;2023-02-03T08:54:24;99309.34;;;4.29;76.57
33161;BME280;19522;45.656;11.302;2023-02-03T08:56:50;99310.47;;;4.47;74.80
33161;BME280;19522;45.656;11.302;2023-02-03T08:59:16;99315.31;;;4.32;76.88
33161;BME280;19522;45.656;11.302;2023-02-03T09:01:42;99312.34;;;4.47;75.86
33161;BME280;19522;45.656;11.302;2023-02-03T09:04:11;99298.75;;;4.70;75.00
33161;BME280;19522;45.656;11.302;2023-02-03T09:06:37;99305.06;;;4.80;73.94
33161;BME280;19522;45.656;11.302;2023-02-03T09:09:03;99299.34;;;4.73;72.87
33161;BME280;19522;45.656;11.302;2023-02-03T09:11:29;99261.09;;;4.91;71.33
33161;BME280;19522;45.656;11.302;2023-02-03T09:13:54;99317.28;;;5.26;71.17
33161;BME280;19522;45.656;11.302;2023-02-03T09:16:22;99319.16;;;5.57;70.20
33161;BME280;19522;45.656;11.302;2023-02-03T09:18:48;99314.03;;;5.54;69.74
33161;BME280;19522;45.656;11.302;2023-02-03T09:21:15;99323.19;;;5.82;69.97
33161;BME280;19522;45.656;11.302;2023-02-03T09:23:41;99316.13;;;5.91;68.84
33161;BME280;19522;45.656;11.302;2023-02-03T09:26:09;99303.72;;;6.00;68.42
33161;BME280;19522;45.656;11.302;2023-02-03T09:28:35;99320.31;;;6.05;68.29
33161;BME280;19522;45.656;11.302;2023-02-03T09:31:06;99315.38;;;6.20;69.08
33161;BME280;19522;45.656;11.302;2023-02-03T09:33:32;99305.66;;;6.48;68.85
33161;BME280;19522;45.656;11.302;2023-02-03T09:35:58;99291.16;;;6.59;68.64
33161;BME280;19522;45.656;11.302;2023-02-03T09:38:24;99305.06;;;6.74;67.42
33161;BME280;19522;45.656;11.302;2023-02-03T09:40:55;99276.03;;;7.06;66.10
33161;BME280;19522;45.656;11.302;2023-02-03T09:43:36;99284.31;;;7.42;65.31
33161;BME280;19522;45.656;11.302;2023-02-03T09:46:25;99280.75;;;8.07;64.75
33161;BME280;19522;45.656;11.302;2023-02-03T09:49:05;99269.03;;;8.52;61.65
33161;BME280;19522;45.656;11.302;2023-02-03T09:51:43;99274.19;;;8.82;62.28
33161;BME280;19522;45.656;11.302;2023-02-03T09:54:25;99260.31;;;9.03;58.52
33161;BME280;19522;45.656;11.302;2023-02-03T09:56:52;99277.66;;;8.92;59.37
33161;BME280;19522;45.656;11.302;2023-02-03T09:59:21;99290.66;;;9.67;58.23
33161;BME280;19522;45.656;11.302;2023-02-03T10:01:59;99297.75;;;9.95;57.32
33161;BME280;19522;45.656;11.302;2023-02-03T10:04:37;99291.25;;;10.31;56.40
33161;BME280;19522;45.656;11.302;2023-02-03T10:17:36;99292.50;;;10.61;55.44
33161;BME280;19522;45.656;11.302;2023-02-03T10:22:39;99265.53;;;11.01;55.46
33161;BME280;19522;45.656;11.302;2023-02-03T10:27:36;99259.88;;;11.83;54.02
33161;BME280;19522;45.656;11.302;2023-02-03T10:30:09;99268.47;;;11.56;54.34
33161;BME280;19522;45.656;11.302;2023-02-03T10:32:45;99246.03;;;11.53;53.55
33161;BME280;19522;45.656;11.302;2023-02-03T10:35:12;99234.22;;;11.78;54.71
33161;BME280;19522;45.656;11.302;2023-02-03T10:37:44;99254.78;;;11.32;55.46
33161;BME280;19522;45.656;11.302;2023-02-03T10:40:13;99224.91;;;10.99;55.17
33161;BME280;19522;45.656;11.302;2023-02-03T10:42:41;99246.19;;;10.79;56.24
33161;BME280;19522;45.656;11.302;2023-02-03T10:45:29;99243.41;;;11.20;56.34
33161;BME280;19522;45.656;11.302;2023-02-03T10:47:56;99240.94;;;11.50;54.29
33161;BME280;19522;45.656;11.302;2023-02-03T10:50:24;99222.13;;;12.20;52.40
33161;BME280;19522;45.656;11.302;2023-02-03T10:55:49;99221.09;;;12.21;51.63
33161;BME280;19522;45.656;11.302;2023-02-03T10:58:26;99215.88;;;12.35;50.50
33161;BME280;19522;45.656;11.302;2023-02-03T11:01:06;99183.81;;;11.90;51.24
33161;BME280;19522;45.656;11.302;2023-02-03T11:03:33;99190.09;;;12.45;50.76
33161;BME280;19522;45.656;11.302;2023-02-03T11:06:12;99193.84;;;12.44;51.71
33161;BME280;19522;45.656;11.302;2023-02-03T11:08:41;99189.41;;;12.67;51.20
33161;BME280;19522;45.656;11.302;2023-02-03T11:11:09;99184.53;;;13.60;48.47
33161;BME280;19522;45.656;11.302;2023-02-03T11:13:37;99178.50;;;13.20;48.48
33161;BME280;19522;45.656;11.302;2023-02-03T11:16:06;99177.97;;;12.71;49.57
33161;BME280;19522;45.656;11.302;2023-02-03T11:18:46;99165.34;;;12.32;49.67
33161;BME280;19522;45.656;11.302;2023-02-03T11:21:30;99172.53;;;12.86;49.76
33161;BME280;19522;45.656;11.302;2023-02-03T11:27:02;99168.34;;;12.37;50.69
33161;BME280;19522;45.656;11.302;2023-02-03T11:29:35;99163.53;;;12.01;50.36
33161;BME280;19522;45.656;11.302;2023-02-03T11:32:18;99159.34;;;11.50;50.31
33161;BME280;19522;45.656;11.302;2023-02-03T11:34:56;99132.50;;;11.47;49.89
33161;BME280;19522;45.656;11.302;2023-02-03T11:39:55;99145.47;;;11.37;51.16
33161;BME280;19522;45.656;11.302;2023-02-03T11:42:24;99132.03;;;11.35;49.46
33161;BME280;19522;45.656;11.302;2023-02-03T11:44:50;99101.78;;;10.99;50.77
33161;BME280;19522;45.656;11.302;2023-02-03T11:47:16;99072.78;;;11.22;50.79
33161;BME280;19522;45.656;11.302;2023-02-03T11:55:06;99098.81;;;11.57;49.28
33161;BME280;19522;45.656;11.302;2023-02-03T12:17:12;99054.06;;;12.44;46.70
33161;BME280;19522;45.656;11.302;2023-02-03T12:30:24;99004.50;;;11.72;45.50
33161;BME280;19522;45.656;11.302;2023-02-03T12:32:58;98999.28;;;11.85;44.91
33161;BME280;19522;45.656;11.302;2023-02-03T12:35:35;99000.34;;;12.23;45.85
33161;BME280;19522;45.656;11.302;2023-02-03T12:40:47;98945.88;;;11.84;45.92
33161;BME280;19522;45.656;11.302;2023-02-03T12:43:38;99004.03;;;12.60;45.90
33161;BME280;19522;45.656;11.302;2023-02-03T12:46:13;98989.25;;;12.39;45.41
33161;BME280;19522;45.656;11.302;2023-02-03T12:51:14;98981.09;;;12.39;47.36
33161;BME280;19522;45.656;11.302;2023-02-03T12:53:52;98961.63;;;11.74;49.43
33161;BME280;19522;45.656;11.302;2023-02-03T12:56:30;98907.44;;;11.88;48.94
33161;BME280;19522;45.656;11.302;2023-02-03T12:59:14;98964.97;;;12.89;47.27
33161;BME280;19522;45.656;11.302;2023-02-03T13:01:51;98953.03;;;12.90;47.31
33161;BME280;19522;45.656;11.302;2023-02-03T13:04:44;98955.63;;;12.62;47.97
33161;BME280;19522;45.656;11.302;2023-02-03T13:07:26;98968.59;;;11.92;48.96
33161;BME280;19522;45.656;11.302;2023-02-03T13:10:02;98971.03;;;11.48;50.83
33161;BME280;19522;45.656;11.302;2023-02-03T13:12:32;98970.34;;;11.46;50.90
33161;BME280;19522;45.656;11.302;2023-02-03T13:18:04;98966.41;;;11.72;51.78
33161;BME280;19522;45.656;11.302;2023-02-03T13:20:35;98951.59;;;12.28;50.36
33161;BME280;19522;45.656;11.302;2023-02-03T13:23:06;98928.13;;;12.27;50.25
33161;BME280;19522;45.656;11.302;2023-02-03T13:31:45;98966.34;;;12.49;49.68
33161;BME280;19522;45.656;11.302;2023-02-03T13:37:21;98978.72;;;12.06;50.92
33161;BME280;19522;45.656;11.302;2023-02-03T13:42:47;98978.91;;;11.81;51.23
33161;BME280;19522;45.656;11.302;2023-02-03T13:45:31;98978.09;;;11.58;52.79
33161;BME280;19522;45.656;11.302;2023-02-03T13:48:18;98970.84;;;11.50;53.48
33161;BME280;19522;45.656;11.302;2023-02-03T13:51:01;98964.53;;;11.49;53.35
33161;BME280;19522;45.656;11.302;2023-02-03T13:53:37;98967.38;;;11.33;53.68
33161;BME280;19522;45.656;11.302;2023-02-03T13:56:20;98959.63;;;11.21;54.90
33161;BME280;19522;45.656;11.302;2023-02-03T14:01:41;98961.66;;;11.51;54.77
33161;BME280;19522;45.656;11.302;2023-02-03T14:06:59;98955.59;;;11.41;55.61
33161;BME280;19522;45.656;11.302;2023-02-03T14:14:43;98967.59;;;10.60;58.99
33161;BME280;19522;45.656;11.302;2023-02-03T14:25:24;98956.63;;;10.37;61.10
33161;BME280;19522;45.656;11.302;2023-02-03T14:28:20;98942.28;;;10.03;62.15
33161;BME280;19522;45.656;11.302;2023-02-03T14:31:26;98947.41;;;9.90;63.47
33161;BME280;19522;45.656;11.302;2023-02-03T14:34:03;98949.03;;;10.24;62.17
33161;BME280;19522;45.656;11.302;2023-02-03T14:39:36;98950.28;;;10.05;62.98
33161;BME280;19522;45.656;11.302;2023-02-03T14:42:31;98955.22;;;9.85;64.15
33161;BME280;19522;45.656;11.302;2023-02-03T14:45:23;98969.25;;;9.96;63.57
33161;BME280;19522;45.656;11.302;2023-02-03T14:53:45;98961.13;;;9.14;67.90
33161;BME280;19522;45.656;11.302;2023-02-03T14:59:24;98925.09;;;8.62;69.99
33161;BME280;19522;45.656;11.302;2023-02-03T15:06:46;98941.69;;;8.59;71.07
33161;BME280;19522;45.656;11.302;2023-02-03T15:11:55;98919.25;;;8.40;71.35
33161;BME280;19522;45.656;11.302;2023-02-03T15:14:28;98944.41;;;8.67;71.59
33161;BME280;19522;45.656;11.302;2023-02-03T15:17:03;98937.34;;;8.83;70.96
33161;BME280;19522;45.656;11.302;2023-02-03T15:19:39;98936.34;;;8.84;70.07
33161;BME280;19522;45.656;11.302;2023-02-03T15:24:52;98924.31;;;8.78;70.64
33161;BME280;19522;45.656;11.302;2023-02-03T15:27:44;98938.88;;;8.85;69.71
33161;BME280;19522;45.656;11.302;2023-02-03T15:30:26;98931.44;;;8.96;69.43
33161;BME280;19522;45.656;11.302;2023-02-03T15:32:59;98934.53;;;9.01;69.64